createdAt,value
2022-08-03T00:00:51.745Z,61.84
2022-08-03T00:01:53.251Z,62.23
2022-08-03T00:02:54.758Z,62.33
2022-08-03T00:03:56.254Z,62.62
2022-08-03T00:04:57.748Z,62.53
2022-08-03T00:06:04.052Z,62.49
2022-08-03T00:07:06.545Z,62.54
2022-08-03T00:08:07.966Z,62.45
2022-08-03T00:09:10.814Z,62.46
2022-08-03T00:10:13.415Z,62.32
2022-08-03T00:11:16.222Z,61.79
2022-08-03T00:12:18.076Z,61.48
2022-08-03T00:13:19.842Z,61.54
2022-08-03T00:14:21.283Z,61.92
2022-08-03T00:15:22.936Z,61.90
2022-08-03T00:16:24.551Z,62.16
2022-08-03T00:17:26.015Z,62.19
2022-08-03T00:18:27.516Z,62.54
2022-08-03T00:19:29.002Z,62.47
2022-08-03T00:20:30.436Z,62.63
2022-08-03T00:21:31.964Z,62.71
2022-08-03T00:22:35.044Z,62.34
2022-08-03T00:23:52.486Z,62.72
2022-08-03T00:24:54.271Z,62.89
2022-08-03T00:25:55.822Z,63.11
2022-08-03T00:26:58.603Z,63.12
2022-08-03T00:28:00.101Z,63.14
2022-08-03T00:29:01.532Z,63.08
2022-08-03T00:30:03.849Z,62.79
2022-08-03T00:31:05.274Z,62.86
2022-08-03T00:32:08.691Z,62.61
2022-08-03T00:33:13.520Z,62.77
2022-08-03T00:34:16.055Z,62.80
2022-08-03T00:35:27.345Z,62.77
2022-08-03T00:36:38.078Z,62.92
2022-08-03T00:37:41.681Z,62.96
2022-08-03T00:38:43.338Z,62.38
2022-08-03T00:39:44.777Z,62.54
2022-08-03T00:40:46.347Z,62.62
2022-08-03T00:41:47.772Z,62.52
2022-08-03T00:42:53.807Z,62.62
2022-08-03T00:43:55.250Z,62.59
2022-08-03T00:44:56.711Z,62.66
2022-08-03T00:45:58.164Z,62.38
2022-08-03T00:46:59.623Z,62.57
2022-08-03T00:48:02.444Z,62.65
2022-08-03T00:49:04.022Z,62.59
2022-08-03T00:50:06.453Z,62.75
2022-08-03T00:51:08.140Z,63.04
2022-08-03T00:52:11.203Z,63.20
2022-08-03T00:53:12.793Z,63.28
2022-08-03T00:54:14.949Z,63.24
2022-08-03T00:55:16.958Z,63.01
2022-08-03T00:56:18.661Z,62.79
2022-08-03T00:57:20.827Z,62.71
2022-08-03T00:58:23.947Z,62.89
2022-08-03T00:59:25.380Z,63.05
2022-08-03T01:00:27.758Z,62.71
2022-08-03T01:01:32.318Z,62.75
2022-08-03T01:02:34.273Z,62.44
2022-08-03T01:03:35.751Z,61.96
2022-08-03T01:04:37.188Z,61.93
2022-08-03T01:05:55.788Z,61.33
2022-08-03T01:07:03.502Z,61.40
2022-08-03T01:08:12.069Z,61.41
2022-08-03T01:09:22.126Z,61.56
2022-08-03T01:10:28.808Z,61.49
2022-08-03T01:11:59.719Z,61.19
2022-08-03T01:13:59.203Z,62.04
2022-08-03T01:14:38.480Z,61.96
2022-08-03T01:15:46.262Z,61.70
2022-08-03T01:16:55.998Z,61.74
2022-08-03T01:18:02.947Z,62.39
2022-08-03T01:19:24.183Z,62.58
2022-08-03T01:20:29.630Z,62.80
2022-08-03T01:21:33.996Z,63.19
2022-08-03T01:23:23.610Z,63.22
2022-08-03T01:24:37.710Z,63.44
2022-08-03T01:25:59.672Z,63.66
2022-08-03T01:27:08.621Z,63.33
2022-08-03T01:28:25.336Z,63.09
2022-08-03T01:29:46.416Z,62.91
2022-08-03T01:30:49.797Z,62.96
2022-08-03T01:32:58.715Z,62.92
2022-08-03T01:33:22.783Z,62.88
2022-08-03T01:34:28.138Z,62.90
2022-08-03T01:35:38.459Z,62.45
2022-08-03T01:36:44.669Z,62.77
2022-08-03T01:37:52.024Z,63.21
2022-08-03T01:38:56.061Z,63.04
2022-08-03T01:40:01.006Z,62.80
2022-08-03T01:41:05.853Z,63.12
2022-08-03T01:42:10.197Z,62.91
2022-08-03T01:44:26.218Z,62.83
2022-08-03T01:44:42.392Z,62.61
2022-08-03T01:45:44.613Z,62.94
2022-08-03T01:46:48.855Z,62.67
2022-08-03T01:47:52.732Z,62.59
2022-08-03T01:48:56.244Z,62.50
2022-08-03T01:50:00.528Z,62.33
2022-08-03T01:51:02.665Z,61.99
2022-08-03T01:52:05.633Z,61.95
2022-08-03T01:53:08.912Z,61.67
2022-08-03T01:54:12.570Z,61.41
2022-08-03T01:55:19.061Z,61.46
2022-08-03T01:56:24.225Z,61.14
2022-08-03T01:57:28.731Z,61.13
2022-08-03T01:58:32.165Z,61.25
2022-08-03T01:59:35.457Z,61.26
2022-08-03T02:00:40.213Z,61.13
2022-08-03T02:02:19.566Z,61.07
2022-08-03T02:03:06.978Z,61.25
2022-08-03T02:04:09.684Z,61.03
2022-08-03T02:05:12.618Z,60.98
2022-08-03T02:07:01.334Z,60.98
2022-08-03T02:07:40.457Z,60.83
2022-08-03T02:08:44.688Z,61.07
2022-08-03T02:09:51.504Z,61.01
2022-08-03T02:10:57.008Z,60.90
2022-08-03T02:11:59.136Z,60.55
2022-08-03T02:13:01.919Z,60.84
2022-08-03T02:14:05.830Z,60.67
2022-08-03T02:15:09.591Z,60.77
2022-08-03T02:16:14.151Z,60.85
2022-08-03T02:17:16.373Z,61.43
2022-08-03T02:18:20.079Z,61.77
2022-08-03T02:19:24.817Z,62.10
2022-08-03T02:20:28.379Z,62.23
2022-08-03T02:21:57.042Z,62.21
2022-08-03T02:22:55.131Z,62.37
2022-08-03T02:23:56.675Z,62.44
2022-08-03T02:24:58.132Z,62.31
2022-08-03T02:26:04.557Z,62.50
2022-08-03T02:27:13.673Z,62.60
2022-08-03T02:28:18.121Z,62.51
2022-08-03T02:29:39.492Z,62.58
2022-08-03T02:30:45.831Z,62.66
2022-08-03T02:31:58.152Z,62.85
2022-08-03T02:33:01.617Z,62.89
2022-08-03T02:34:08.287Z,62.83
2022-08-03T02:35:13.016Z,62.86
2022-08-03T02:36:15.949Z,62.68
2022-08-03T02:37:19.194Z,62.94
2022-08-03T02:38:25.998Z,62.86
2022-08-03T02:39:31.180Z,62.95
2022-08-03T02:40:33.655Z,62.60
2022-08-03T02:41:37.985Z,62.72
2022-08-03T02:42:44.276Z,62.71
2022-08-03T02:44:06.044Z,62.55
2022-08-03T02:45:11.688Z,62.87
2022-08-03T02:46:17.206Z,62.68
2022-08-03T02:47:20.692Z,62.99
2022-08-03T02:48:26.503Z,63.15
2022-08-03T02:49:42.153Z,63.61
2022-08-03T02:50:54.024Z,64.12
2022-08-03T02:51:57.696Z,64.29
2022-08-03T02:53:01.208Z,64.58
2022-08-03T02:54:04.837Z,64.40
2022-08-03T02:55:10.159Z,64.40
2022-08-03T02:56:12.630Z,64.23
2022-08-03T02:57:15.136Z,64.32
2022-08-03T02:58:19.387Z,64.21
2022-08-03T02:59:22.283Z,64.24
2022-08-03T03:00:27.344Z,64.44
2022-08-03T03:01:31.465Z,64.57
2022-08-03T03:02:34.864Z,64.46
2022-08-03T03:03:44.829Z,64.65
2022-08-03T03:05:51.831Z,64.69
2022-08-03T03:06:13.337Z,65.03
2022-08-03T03:07:17.585Z,65.29
2022-08-03T03:08:26.770Z,65.72
2022-08-03T03:09:40.233Z,66.17
2022-08-03T03:10:44.288Z,66.45
2022-08-03T03:11:46.278Z,66.72
2022-08-03T03:12:50.142Z,66.73
2022-08-03T03:13:52.746Z,67.00
2022-08-03T03:14:54.229Z,66.93
2022-08-03T03:15:57.212Z,67.00
2022-08-03T03:16:59.808Z,67.05
2022-08-03T03:18:03.149Z,67.24
2022-08-03T03:19:05.316Z,67.21
2022-08-03T03:20:08.752Z,67.47
2022-08-03T03:21:10.725Z,67.56
2022-08-03T03:22:13.076Z,67.63
2022-08-03T03:23:15.318Z,67.34
2022-08-03T03:24:17.282Z,67.29
2022-08-03T03:25:20.097Z,67.14
2022-08-03T03:26:21.800Z,67.25
2022-08-03T03:27:23.445Z,67.04
2022-08-03T03:28:25.394Z,66.96
2022-08-03T03:29:27.765Z,66.96
2022-08-03T03:30:29.882Z,67.17
2022-08-03T03:31:31.863Z,66.94
2022-08-03T03:32:33.578Z,66.49
2022-08-03T03:33:37.824Z,66.72
2022-08-03T03:34:39.584Z,66.82
2022-08-03T03:35:42.551Z,66.73
2022-08-03T03:36:44.029Z,66.71
2022-08-03T03:37:45.548Z,66.73
2022-08-03T03:38:47.040Z,66.62
2022-08-03T03:39:48.513Z,66.67
2022-08-03T03:40:50.125Z,66.65
2022-08-03T03:41:52.012Z,66.91
2022-08-03T03:42:53.588Z,66.99
2022-08-03T03:43:55.519Z,67.26
2022-08-03T03:44:57.046Z,67.48
2022-08-03T03:46:01.779Z,67.62
2022-08-03T03:47:03.477Z,67.71
2022-08-03T03:48:05.977Z,67.65
2022-08-03T03:49:09.124Z,67.81
2022-08-03T03:50:10.636Z,67.94
2022-08-03T03:51:12.717Z,68.10
2022-08-03T03:52:16.806Z,68.51
2022-08-03T03:53:18.515Z,68.34
2022-08-03T03:54:20.022Z,68.38
2022-08-03T03:55:21.492Z,68.08
2022-08-03T03:56:23.335Z,68.18
2022-08-03T03:57:24.862Z,67.84
2022-08-03T03:58:26.357Z,67.85
2022-08-03T03:59:27.855Z,67.80
2022-08-03T04:00:29.732Z,67.86
2022-08-03T04:01:31.614Z,67.87
2022-08-03T04:02:33.325Z,68.15
2022-08-03T04:03:35.741Z,68.15
2022-08-03T04:04:39.076Z,68.24
2022-08-03T04:05:44.241Z,68.26
2022-08-03T04:06:47.829Z,68.52
2022-08-03T04:08:00.820Z,68.74
2022-08-03T04:09:03.214Z,68.44
2022-08-03T04:10:14.399Z,68.62
2022-08-03T04:11:20.250Z,68.88
2022-08-03T04:12:32.331Z,69.00
2022-08-03T04:13:37.685Z,69.29
2022-08-03T04:14:40.389Z,69.28
2022-08-03T04:15:42.758Z,69.40
2022-08-03T04:16:48.981Z,69.27
2022-08-03T04:17:53.098Z,69.32
2022-08-03T04:19:00.593Z,68.98
2022-08-03T04:20:04.751Z,69.15
2022-08-03T04:21:11.154Z,69.20
2022-08-03T04:22:17.745Z,68.91
2022-08-03T04:23:22.189Z,68.71
2022-08-03T04:24:26.559Z,68.51
2022-08-03T04:25:32.217Z,68.48
2022-08-03T04:26:36.319Z,68.25
2022-08-03T04:27:41.428Z,68.40
2022-08-03T04:28:44.732Z,68.39
2022-08-03T04:29:49.246Z,68.53
2022-08-03T04:30:53.582Z,68.80
2022-08-03T04:31:59.370Z,68.99
2022-08-03T04:33:02.307Z,69.09
2022-08-03T04:34:04.690Z,69.22
2022-08-03T04:35:08.631Z,69.24
2022-08-03T04:36:14.847Z,69.28
2022-08-03T04:37:26.135Z,69.20
2022-08-03T04:38:29.360Z,69.23
2022-08-03T04:39:32.631Z,69.29
2022-08-03T04:40:36.244Z,69.49
2022-08-03T04:42:07.284Z,69.18
2022-08-03T04:43:02.616Z,69.20
2022-08-03T04:44:05.694Z,68.90
2022-08-03T04:45:11.492Z,68.46
2022-08-03T04:46:14.028Z,68.78
2022-08-03T04:47:16.315Z,68.07
2022-08-03T04:48:19.808Z,68.10
2022-08-03T04:49:21.776Z,68.32
2022-08-03T04:50:25.302Z,68.27
2022-08-03T04:51:27.626Z,68.31
2022-08-03T04:52:29.353Z,68.37
2022-08-03T04:53:30.888Z,68.18
2022-08-03T04:54:39.512Z,68.21
2022-08-03T04:55:40.938Z,68.14
2022-08-03T04:56:42.710Z,68.06
2022-08-03T04:57:44.146Z,68.05
2022-08-03T04:58:45.623Z,68.81
2022-08-03T04:59:47.091Z,68.58
2022-08-03T05:00:48.532Z,69.31
2022-08-03T05:01:50.943Z,70.02
2022-08-03T05:02:52.956Z,70.07
2022-08-03T05:03:54.442Z,70.74
2022-08-03T05:04:55.893Z,71.49
2022-08-03T05:06:09.801Z,70.88
2022-08-03T05:07:13.197Z,71.24
2022-08-03T05:08:14.703Z,71.75
2022-08-03T05:09:16.182Z,72.22
2022-08-03T05:10:37.657Z,71.45
2022-08-03T05:11:39.094Z,72.08
2022-08-03T05:12:40.715Z,72.66
2022-08-03T05:13:42.195Z,72.08
2022-08-03T05:14:43.637Z,71.09
2022-08-03T05:15:45.138Z,71.24
2022-08-03T05:16:46.601Z,72.45
2022-08-03T05:17:48.074Z,70.46
2022-08-03T05:18:49.590Z,71.38
2022-08-03T05:19:51.046Z,70.51
2022-08-03T05:20:52.480Z,71.04
2022-08-03T05:21:55.273Z,69.83
2022-08-03T05:22:56.854Z,70.60
2022-08-03T05:23:58.326Z,68.99
2022-08-03T05:25:01.122Z,68.24
2022-08-03T05:26:02.607Z,69.62
2022-08-03T05:27:04.134Z,68.38
2022-08-03T05:28:05.609Z,68.75
2022-08-03T05:29:07.073Z,70.20
2022-08-03T05:30:30.410Z,70.13
2022-08-03T05:31:31.035Z,70.06
2022-08-03T05:32:32.478Z,69.36
2022-08-03T05:33:33.952Z,70.01
2022-08-03T05:34:35.431Z,69.35
2022-08-03T05:35:55.881Z,68.46
2022-08-03T05:37:00.324Z,69.39
2022-08-03T05:38:02.218Z,68.09
2022-08-03T05:39:03.829Z,66.37
2022-08-03T05:40:06.531Z,68.45
2022-08-03T05:41:21.124Z,69.31
2022-08-03T05:42:24.572Z,67.40
2022-08-03T05:43:26.008Z,69.68
2022-08-03T05:44:27.842Z,68.22
2022-08-03T05:45:29.312Z,69.03
2022-08-03T05:46:30.819Z,69.40
2022-08-03T05:47:32.267Z,68.82
2022-08-03T05:48:33.817Z,69.38
2022-08-03T05:49:35.442Z,69.63
2022-08-03T05:50:41.097Z,67.93
2022-08-03T05:51:44.283Z,67.11
2022-08-03T05:52:47.561Z,69.15
2022-08-03T05:53:49.610Z,69.55
2022-08-03T05:54:56.356Z,69.70
2022-08-03T05:56:03.503Z,68.21
2022-08-03T05:57:16.255Z,70.89
2022-08-03T05:58:18.004Z,67.46
2022-08-03T05:59:37.532Z,69.73
2022-08-03T06:00:39.820Z,67.00
2022-08-03T06:01:41.359Z,65.79
2022-08-03T06:02:42.904Z,67.13
2022-08-03T06:03:44.884Z,66.22
2022-08-03T06:04:46.339Z,63.57
2022-08-03T06:05:59.943Z,67.16
2022-08-03T06:07:01.668Z,64.92
2022-08-03T06:08:05.150Z,65.32
2022-08-03T06:09:06.623Z,63.70
2022-08-03T06:10:34.492Z,66.09
2022-08-03T06:11:30.276Z,63.74
2022-08-03T06:12:31.810Z,64.41
2022-08-03T06:13:33.365Z,66.15
2022-08-03T06:14:34.810Z,65.86
2022-08-03T06:15:36.251Z,65.24
2022-08-03T06:16:37.720Z,65.57
2022-08-03T06:17:46.078Z,65.62
2022-08-03T06:18:47.528Z,63.10
2022-08-03T06:19:51.434Z,64.26
2022-08-03T06:20:53.982Z,63.19
2022-08-03T06:21:56.605Z,65.18
2022-08-03T06:23:00.308Z,62.32
2022-08-03T06:24:04.383Z,63.57
2022-08-03T06:25:12.848Z,65.08
2022-08-03T06:26:14.529Z,63.23
2022-08-03T06:27:16.500Z,62.64
2022-08-03T06:28:52.297Z,62.21
2022-08-03T06:29:39.439Z,63.25
2022-08-03T06:30:41.174Z,61.95
2022-08-03T06:31:42.648Z,60.17
2022-08-03T06:32:44.367Z,61.75
2022-08-03T06:34:32.990Z,60.84
2022-08-03T06:35:15.150Z,59.24
2022-08-03T06:36:16.658Z,58.50
2022-08-03T06:37:18.102Z,57.33
2022-08-03T06:38:19.549Z,59.73
2022-08-03T06:39:23.476Z,58.11
2022-08-03T06:40:25.456Z,57.31
2022-08-03T06:41:27.491Z,57.86
2022-08-03T06:42:28.958Z,58.60
2022-08-03T06:43:30.398Z,56.87
2022-08-03T06:44:37.397Z,56.04
2022-08-03T06:45:38.845Z,55.71
2022-08-03T06:46:40.416Z,52.07
2022-08-03T06:47:41.873Z,50.13
2022-08-03T06:48:46.360Z,49.90
2022-08-03T06:50:16.233Z,49.01
2022-08-03T06:51:09.133Z,48.27
2022-08-03T06:52:10.565Z,48.14
2022-08-03T06:53:21.203Z,48.35
2022-08-03T06:54:24.326Z,47.66
2022-08-03T06:55:25.853Z,48.04
2022-08-03T06:56:27.279Z,47.94
2022-08-03T06:57:28.755Z,48.21
2022-08-03T06:58:30.214Z,48.28
2022-08-03T07:00:09.354Z,47.91
2022-08-03T07:00:53.372Z,46.45
2022-08-03T07:01:54.862Z,46.61
2022-08-03T07:02:58.405Z,47.00
2022-08-03T07:04:00.147Z,46.31
2022-08-03T07:05:01.598Z,46.68
2022-08-03T07:06:03.487Z,45.75
2022-08-03T07:07:05.018Z,45.98
2022-08-03T07:08:06.505Z,47.17
2022-08-03T07:09:07.943Z,46.14
2022-08-03T07:10:10.861Z,45.96
2022-08-03T07:11:12.313Z,46.24
2022-08-03T07:12:13.813Z,47.90
2022-08-03T07:13:15.272Z,46.15
2022-08-03T07:14:16.761Z,45.99
2022-08-03T07:15:20.175Z,46.20
2022-08-03T07:16:21.789Z,46.08
2022-08-03T07:17:23.243Z,45.92
2022-08-03T07:18:29.621Z,45.82
2022-08-03T07:19:31.482Z,45.39
2022-08-03T07:20:33.214Z,44.51
2022-08-03T07:21:34.671Z,45.22
2022-08-03T07:22:36.129Z,45.04
2022-08-03T07:23:37.581Z,44.95
2022-08-03T07:24:39.043Z,45.60
2022-08-03T07:25:41.842Z,44.98
2022-08-03T07:26:43.310Z,45.91
2022-08-03T07:27:51.679Z,44.64
2022-08-03T07:28:53.322Z,44.75
2022-08-03T07:29:54.829Z,44.94
2022-08-03T07:30:56.346Z,44.50
2022-08-03T07:31:58.063Z,44.83
2022-08-03T07:32:59.599Z,45.98
2022-08-03T07:34:01.078Z,45.61
2022-08-03T07:35:03.047Z,45.57
2022-08-03T07:36:10.331Z,45.84
2022-08-03T07:37:11.799Z,44.57
2022-08-03T07:38:13.240Z,45.32
2022-08-03T07:39:17.880Z,46.06
2022-08-03T07:40:19.692Z,44.86
2022-08-03T07:41:22.469Z,43.81
2022-08-03T07:42:23.914Z,43.18
2022-08-03T07:43:25.393Z,43.41
2022-08-03T07:44:26.852Z,43.76
2022-08-03T07:45:29.529Z,43.52
2022-08-03T07:46:30.985Z,43.28
2022-08-03T07:47:35.530Z,43.93
2022-08-03T07:48:37.522Z,43.64
2022-08-03T07:49:40.422Z,43.46
2022-08-03T07:50:41.920Z,43.52
2022-08-03T07:51:43.422Z,43.69
2022-08-03T07:52:44.947Z,44.05
2022-08-03T07:53:48.028Z,43.98
2022-08-03T07:54:49.835Z,42.97
2022-08-03T07:55:51.345Z,43.23
2022-08-03T07:56:54.131Z,42.74
2022-08-03T07:58:03.638Z,43.66
2022-08-03T07:59:05.109Z,43.69
2022-08-03T08:00:14.132Z,43.35
2022-08-03T08:01:15.596Z,43.20
2022-08-03T08:02:17.351Z,43.19
2022-08-03T08:03:19.297Z,42.43
2022-08-03T08:04:20.734Z,42.33
2022-08-03T08:05:22.179Z,42.48
2022-08-03T08:06:23.630Z,42.74
2022-08-03T08:07:25.109Z,42.62
2022-08-03T08:08:26.758Z,42.88
2022-08-03T08:09:28.261Z,43.48
2022-08-03T08:10:31.175Z,42.00
2022-08-03T08:11:34.860Z,42.76
2022-08-03T08:12:41.587Z,40.88
2022-08-03T08:13:43.049Z,41.93
2022-08-03T08:14:44.499Z,42.08
2022-08-03T08:15:45.962Z,42.16
2022-08-03T08:16:48.742Z,41.95
2022-08-03T08:17:52.205Z,41.43
2022-08-03T08:18:53.699Z,41.72
2022-08-03T08:19:55.146Z,42.23
2022-08-03T08:20:56.741Z,41.48
2022-08-03T08:22:02.418Z,41.43
2022-08-03T08:23:32.591Z,41.46
2022-08-03T08:24:27.792Z,41.77
2022-08-03T08:25:30.414Z,41.98
2022-08-03T08:26:31.895Z,42.29
2022-08-03T08:28:30.890Z,41.55
2022-08-03T08:28:56.003Z,40.82
2022-08-03T08:30:00.610Z,40.38
2022-08-03T08:31:06.312Z,41.04
2022-08-03T08:32:07.757Z,41.22
2022-08-03T08:33:15.722Z,40.47
2022-08-03T08:34:25.095Z,40.35
2022-08-03T08:35:26.541Z,40.00
2022-08-03T08:36:28.057Z,40.62
2022-08-03T08:37:29.492Z,40.55
2022-08-03T08:38:30.925Z,40.07
2022-08-03T08:39:32.361Z,40.11
2022-08-03T08:40:34.018Z,39.54
2022-08-03T08:41:35.514Z,39.54
2022-08-03T08:42:37.544Z,39.39
2022-08-03T08:43:39.029Z,38.67
2022-08-03T08:44:41.842Z,37.74
2022-08-03T08:45:44.826Z,38.76
2022-08-03T08:46:47.506Z,38.75
2022-08-03T08:47:51.766Z,37.56
2022-08-03T08:48:54.857Z,36.73
2022-08-03T08:50:09.801Z,37.65
2022-08-03T08:51:12.741Z,37.46
2022-08-03T08:52:25.153Z,38.59
2022-08-03T08:53:35.667Z,36.49
2022-08-03T08:54:39.437Z,36.71
2022-08-03T08:55:58.545Z,36.65
2022-08-03T08:57:06.665Z,37.47
2022-08-03T08:58:21.469Z,37.62
2022-08-03T08:59:24.038Z,38.18
2022-08-03T09:00:26.804Z,37.83
2022-08-03T09:01:28.635Z,38.06
2022-08-03T09:02:30.945Z,39.12
2022-08-03T09:03:33.019Z,39.10
2022-08-03T09:04:34.653Z,38.02
2022-08-03T09:05:55.311Z,38.21
2022-08-03T09:07:17.987Z,38.75
2022-08-03T09:08:19.193Z,37.83
2022-08-03T09:10:00.367Z,38.08
2022-08-03T09:10:42.066Z,37.61
2022-08-03T09:12:01.003Z,37.34
2022-08-03T09:13:05.014Z,37.26
2022-08-03T09:14:07.032Z,38.16
2022-08-03T09:15:21.485Z,37.30
2022-08-03T09:16:24.224Z,37.28
2022-08-03T09:17:39.310Z,38.04
2022-08-03T09:18:42.245Z,39.32
2022-08-03T09:20:03.970Z,38.68
2022-08-03T09:21:33.884Z,37.69
2022-08-03T09:22:36.137Z,37.56
2022-08-03T09:24:01.475Z,36.92
2022-08-03T09:26:29.250Z,36.51
2022-08-03T09:27:42.106Z,36.36
2022-08-03T09:28:58.111Z,35.59
2022-08-03T09:30:01.937Z,36.42
2022-08-03T09:31:03.397Z,38.81
2022-08-03T09:32:06.514Z,38.69
2022-08-03T09:33:09.614Z,36.61
2022-08-03T09:34:12.973Z,34.88
2022-08-03T09:35:14.765Z,36.50
2022-08-03T09:36:36.311Z,36.78
2022-08-03T09:38:12.787Z,36.21
2022-08-03T09:39:01.003Z,36.58
2022-08-03T09:40:02.681Z,35.35
2022-08-03T09:41:17.703Z,35.71
2022-08-03T09:42:23.752Z,35.23
2022-08-03T09:43:25.642Z,34.42
2022-08-03T09:44:34.045Z,36.82
2022-08-03T09:45:36.257Z,38.60
2022-08-03T09:46:51.099Z,37.00
2022-08-03T09:47:53.993Z,36.12
2022-08-03T09:49:11.473Z,35.36
2022-08-03T09:50:13.590Z,35.56
2022-08-03T09:52:30.226Z,36.03
2022-08-03T09:52:50.210Z,36.19
2022-08-03T09:53:57.231Z,35.89
2022-08-03T09:55:01.952Z,35.66
2022-08-03T09:56:35.118Z,35.69
2022-08-03T09:57:27.341Z,35.79
2022-08-03T09:58:30.313Z,35.78
2022-08-03T09:59:33.537Z,35.90
2022-08-03T10:00:53.017Z,36.23
2022-08-03T10:01:55.714Z,36.19
2022-08-03T10:03:04.159Z,36.38
2022-08-03T10:04:05.702Z,36.71
2022-08-03T10:05:09.619Z,37.26
2022-08-03T10:06:18.292Z,36.75
2022-08-03T10:07:21.276Z,35.80
2022-08-03T10:08:23.198Z,34.95
2022-08-03T10:09:24.628Z,36.11
2022-08-03T10:10:29.896Z,35.96
2022-08-03T10:11:40.877Z,34.65
2022-08-03T10:12:44.393Z,35.28
2022-08-03T10:13:47.550Z,35.48
2022-08-03T10:14:49.010Z,34.17
2022-08-03T10:16:21.865Z,34.61
2022-08-03T10:17:12.783Z,35.01
2022-08-03T10:18:15.749Z,34.95
2022-08-03T10:19:17.535Z,34.81
2022-08-03T10:20:19.205Z,35.25
2022-08-03T10:21:21.337Z,34.67
2022-08-03T10:22:23.994Z,34.90
2022-08-03T10:23:26.179Z,33.57
2022-08-03T10:24:30.079Z,33.73
2022-08-03T10:25:34.922Z,36.96
2022-08-03T10:26:38.855Z,34.97
2022-08-03T10:27:53.085Z,33.04
2022-08-03T10:28:59.283Z,32.74
2022-08-03T10:30:02.195Z,33.18
2022-08-03T10:31:05.306Z,33.75
2022-08-03T10:32:13.667Z,32.49
2022-08-03T10:33:49.582Z,32.49
2022-08-03T10:34:44.379Z,33.11
2022-08-03T10:35:47.461Z,33.35
2022-08-03T10:36:49.733Z,32.51
2022-08-03T10:37:56.403Z,31.91
2022-08-03T10:39:00.781Z,32.84
2022-08-03T10:40:03.333Z,32.04
2022-08-03T10:41:06.404Z,33.88
2022-08-03T10:42:18.769Z,32.42
2022-08-03T10:43:25.542Z,31.39
2022-08-03T10:44:33.164Z,31.33
2022-08-03T10:45:39.069Z,31.47
2022-08-03T10:46:45.013Z,31.00
2022-08-03T10:47:48.268Z,31.86
2022-08-03T10:48:52.070Z,31.45
2022-08-03T10:49:53.673Z,32.18
2022-08-03T10:50:55.598Z,33.74
2022-08-03T10:51:57.264Z,33.25
2022-08-03T10:53:02.045Z,33.72
2022-08-03T10:54:05.564Z,33.97
2022-08-03T10:55:31.914Z,34.41
2022-08-03T10:56:48.034Z,35.34
2022-08-03T10:57:58.295Z,34.58
2022-08-03T10:59:00.163Z,34.87
2022-08-03T11:00:06.508Z,34.94
2022-08-03T11:01:09.606Z,34.71
2022-08-03T11:02:11.546Z,35.13
2022-08-03T11:03:13.881Z,35.52
2022-08-03T11:04:18.264Z,35.08
2022-08-03T11:05:26.992Z,35.12
2022-08-03T11:06:28.767Z,34.48
2022-08-03T11:07:39.184Z,35.36
2022-08-03T11:08:41.017Z,35.05
2022-08-03T11:09:43.484Z,33.75
2022-08-03T11:10:45.177Z,34.96
2022-08-03T11:11:48.443Z,34.21
2022-08-03T11:12:50.153Z,34.70
2022-08-03T11:14:00.735Z,33.81
2022-08-03T11:15:05.498Z,34.18
2022-08-03T11:16:22.030Z,33.00
2022-08-03T11:17:24.074Z,33.19
2022-08-03T11:18:26.979Z,32.53
2022-08-03T11:19:57.845Z,33.09
2022-08-03T11:21:00.539Z,31.78
2022-08-03T11:22:02.096Z,32.02
2022-08-03T11:23:03.653Z,32.41
2022-08-03T11:24:06.761Z,34.24
2022-08-03T11:25:08.712Z,32.96
2022-08-03T11:26:33.553Z,34.01
2022-08-03T11:27:36.763Z,36.95
2022-08-03T11:28:40.035Z,33.69
2022-08-03T11:29:55.182Z,33.04
2022-08-03T11:30:56.704Z,33.84
2022-08-03T11:31:58.499Z,33.45
2022-08-03T11:33:00.387Z,31.96
2022-08-03T11:34:05.514Z,32.23
2022-08-03T11:35:09.145Z,34.14
2022-08-03T11:36:10.612Z,36.15
2022-08-03T11:37:22.639Z,34.39
2022-08-03T11:38:24.571Z,33.91
2022-08-03T11:39:38.146Z,34.02
2022-08-03T11:40:42.929Z,34.90
2022-08-03T11:41:45.112Z,34.90
2022-08-03T11:42:46.926Z,36.07
2022-08-03T11:43:48.356Z,34.91
2022-08-03T11:44:50.544Z,35.79
2022-08-03T11:45:58.575Z,36.94
2022-08-03T11:47:00.697Z,36.23
2022-08-03T11:48:14.313Z,34.53
2022-08-03T11:49:20.908Z,34.43
2022-08-03T11:50:24.192Z,35.04
2022-08-03T11:51:27.609Z,34.91
2022-08-03T11:52:35.398Z,35.36
2022-08-03T11:53:42.201Z,35.25
2022-08-03T11:54:43.866Z,34.65
2022-08-03T11:55:47.453Z,34.46
2022-08-03T11:56:50.222Z,35.91
2022-08-03T11:59:10.743Z,33.48
2022-08-03T11:59:20.749Z,33.89
2022-08-03T12:00:25.979Z,34.07
2022-08-03T12:01:27.631Z,34.02
2022-08-03T12:02:29.106Z,33.89
2022-08-03T12:03:33.130Z,34.52
2022-08-03T12:04:49.757Z,32.46
2022-08-03T12:05:54.813Z,31.99
2022-08-03T12:06:59.923Z,33.76
2022-08-03T12:08:03.495Z,32.09
2022-08-03T12:09:15.571Z,33.62
2022-08-03T12:10:17.257Z,33.42
2022-08-03T12:11:18.720Z,34.52
2022-08-03T12:12:20.226Z,33.45
2022-08-03T12:14:44.636Z,33.24
2022-08-03T12:14:52.127Z,36.80
2022-08-03T12:15:55.470Z,35.48
2022-08-03T12:16:57.012Z,35.23
2022-08-03T12:17:58.527Z,35.95
2022-08-03T12:19:01.380Z,35.08
2022-08-03T12:20:05.343Z,33.75
2022-08-03T12:21:09.870Z,33.21
2022-08-03T12:22:11.370Z,33.59
2022-08-03T12:23:13.137Z,33.43
2022-08-03T12:24:14.837Z,34.13
2022-08-03T12:25:38.581Z,34.36
2022-08-03T12:26:44.764Z,33.96
2022-08-03T12:28:36.972Z,34.09
2022-08-03T12:29:31.250Z,33.26
2022-08-03T12:30:32.962Z,34.90
2022-08-03T12:31:36.044Z,33.60
2022-08-03T12:32:37.563Z,35.37
2022-08-03T12:33:56.261Z,35.10
2022-08-03T12:35:00.036Z,36.75
2022-08-03T12:36:06.234Z,37.75
2022-08-03T12:37:28.653Z,37.34
2022-08-03T12:38:30.772Z,37.86
2022-08-03T12:39:32.284Z,36.68
2022-08-03T12:40:33.892Z,38.79
2022-08-03T12:41:37.295Z,34.50
2022-08-03T12:42:39.687Z,34.40
2022-08-03T12:43:48.133Z,34.57
2022-08-03T12:44:49.638Z,33.75
2022-08-03T12:46:08.429Z,33.33
2022-08-03T12:47:09.875Z,33.80
2022-08-03T12:48:12.392Z,35.43
2022-08-03T12:49:15.382Z,34.53
2022-08-03T12:50:24.345Z,35.11
2022-08-03T12:51:26.202Z,34.95
2022-08-03T12:52:43.482Z,33.80
2022-08-03T12:53:52.088Z,33.78
2022-08-03T12:54:57.950Z,34.86
2022-08-03T12:56:05.874Z,33.97
2022-08-03T12:57:09.450Z,33.76
2022-08-03T12:58:29.926Z,33.49
2022-08-03T12:59:35.170Z,34.67
2022-08-03T13:00:37.425Z,33.35
2022-08-03T13:01:54.800Z,32.52
2022-08-03T13:03:38.427Z,33.62
2022-08-03T13:04:27.242Z,33.42
2022-08-03T13:05:31.540Z,33.18
2022-08-03T13:06:33.030Z,33.25
2022-08-03T13:07:41.725Z,33.01
2022-08-03T13:08:48.122Z,33.36
2022-08-03T13:09:51.351Z,33.38
2022-08-03T13:10:53.827Z,32.48
2022-08-03T13:12:06.081Z,33.41
2022-08-03T13:13:09.770Z,35.22
2022-08-03T13:14:15.334Z,33.39
2022-08-03T13:15:20.986Z,32.89
2022-08-03T13:16:23.012Z,32.46
2022-08-03T13:17:24.894Z,32.15
2022-08-03T13:18:26.390Z,32.28
2022-08-03T13:19:28.281Z,32.47
2022-08-03T13:20:29.849Z,32.19
2022-08-03T13:21:31.317Z,31.94
2022-08-03T13:22:32.847Z,32.36
2022-08-03T13:23:35.705Z,32.63
2022-08-03T13:24:37.251Z,33.07
2022-08-03T13:25:55.087Z,33.82
2022-08-03T13:26:57.614Z,32.07
2022-08-03T13:28:04.478Z,31.86
2022-08-03T13:29:07.394Z,32.69
2022-08-03T13:30:09.809Z,32.00
2022-08-03T13:31:11.284Z,32.67
2022-08-03T13:32:12.841Z,32.55
2022-08-03T13:33:14.344Z,31.77
2022-08-03T13:34:18.711Z,31.84
2022-08-03T13:35:24.133Z,31.34
2022-08-03T13:36:25.590Z,31.16
2022-08-03T13:37:31.652Z,30.89
2022-08-03T13:38:33.164Z,31.74
2022-08-03T13:39:57.933Z,30.76
2022-08-03T13:40:58.189Z,31.38
2022-08-03T13:41:59.653Z,30.83
2022-08-03T13:43:01.111Z,31.86
2022-08-03T13:44:26.678Z,31.19
2022-08-03T13:45:23.947Z,31.89
2022-08-03T13:46:25.270Z,31.30
2022-08-03T13:47:27.178Z,31.61
2022-08-03T13:48:36.219Z,31.10
2022-08-03T13:49:38.955Z,31.73
2022-08-03T13:50:43.067Z,31.03
2022-08-03T13:51:44.805Z,31.44
2022-08-03T13:52:46.345Z,31.59
2022-08-03T13:53:47.791Z,31.01
2022-08-03T13:54:50.547Z,31.56
2022-08-03T13:55:52.041Z,31.76
2022-08-03T13:56:56.668Z,31.73
2022-08-03T13:58:06.234Z,32.78
2022-08-03T13:59:08.581Z,31.24
2022-08-03T14:00:11.184Z,33.06
2022-08-03T14:01:12.797Z,32.40
2022-08-03T14:02:14.255Z,34.46